Weather at Aeródromo forestal de Ademuz

Public forecast

Using degrees Celsius for public forecast. Weather courtesy of forecast.io.

Closest aviation weather report (METAR) to Aeródromo forestal de Ademuz

Closest report is Teruel Airport, 18.7 nm (34.6 km) N. Retrieved 2021/04/11 12:30 UTC (7 minutes ago):

LETL 111230Z AUTO 09004KT 9999 BKN041 OVC047 13/08 Q1013

Closest aviation forecast (TAF) to Aeródromo forestal de Ademuz

Closest forecast is Teruel Airport, 18.7 nm (34.6 km) N. Retrieved 2021/04/11 12:00 UTC (37 minutes ago):

TAF LETL 111100Z 1112/1212 26009KT 9999 BKN015 TX16/1114Z TN03/1206Z TEMPO 1112/1120 SHRA BKN010 FEW020TCU BECMG 1112/1115 35015KT